createdAt,value
2018-05-02T00:01:29.148Z,63.64
2018-05-02T00:02:28.955Z,63.64
2018-05-02T00:04:25.139Z,64.02
2018-05-02T00:05:24.956Z,64.21
2018-05-02T00:07:20.941Z,64.31
2018-05-02T00:08:20.851Z,64.21
2018-05-02T00:10:16.837Z,64.21
2018-05-02T00:11:16.710Z,64.59
2018-05-02T00:13:12.730Z,64.87
2018-05-02T00:14:12.589Z,64.87
2018-05-02T00:16:08.569Z,64.69
2018-05-02T00:17:08.483Z,64.31
2018-05-02T00:19:02.064Z,64.75
2018-05-02T00:20:01.967Z,64.37
2018-05-02T00:21:58.081Z,65.42
2018-05-02T00:22:57.962Z,65.89
2018-05-02T00:24:53.968Z,65.89
2018-05-02T00:25:53.839Z,65.80
2018-05-02T00:27:47.377Z,65.61
2018-05-02T00:28:47.208Z,64.75
2018-05-02T00:30:43.258Z,65.32
2018-05-02T00:31:43.164Z,65.77
2018-05-02T00:33:39.189Z,65.58
2018-05-02T00:34:38.983Z,65.99
2018-05-02T00:36:35.652Z,66.43
2018-05-02T00:38:51.610Z,66.27
2018-05-02T00:39:51.467Z,66.81
2018-05-02T00:41:47.483Z,66.53
2018-05-02T00:42:47.370Z,65.99
2018-05-02T00:44:54.064Z,66.37
2018-05-02T00:45:53.960Z,66.46
2018-05-02T00:47:49.921Z,66.72
2018-05-02T00:48:49.842Z,66.72
2018-05-02T00:50:43.416Z,66.94
2018-05-02T00:51:43.196Z,66.85
2018-05-02T00:53:40.456Z,66.27
2018-05-02T00:54:39.131Z,66.46
2018-05-02T00:56:35.195Z,65.89
2018-05-02T00:57:35.010Z,66.56
2018-05-02T00:59:31.020Z,66.72
2018-05-02T01:00:30.899Z,66.33
2018-05-02T01:02:25.491Z,66.91
2018-05-02T01:03:25.340Z,66.14
2018-05-02T01:05:21.463Z,66.33
2018-05-02T01:06:21.342Z,66.81
2018-05-02T01:08:17.357Z,67.86
2018-05-02T01:09:17.251Z,68.15
2018-05-02T01:11:10.757Z,68.43
2018-05-02T01:12:10.643Z,68.90
2018-05-02T01:14:06.670Z,68.52
2018-05-02T01:15:06.507Z,68.52
2018-05-02T01:17:03.429Z,68.62
2018-05-02T01:18:03.301Z,68.81
2018-05-02T01:19:59.321Z,68.24
2018-05-02T01:20:59.215Z,68.33
2018-05-02T01:22:55.247Z,67.86
2018-05-02T01:23:55.113Z,67.67
2018-05-02T01:25:49.387Z,68.71
2018-05-02T01:26:49.300Z,68.33
2018-05-02T01:28:45.311Z,68.52
2018-05-02T01:29:45.213Z,67.95
2018-05-02T01:31:41.336Z,67.95
2018-05-02T01:32:41.127Z,67.00
2018-05-02T01:34:37.217Z,67.67
2018-05-02T01:35:37.012Z,67.86
2018-05-02T01:37:32.973Z,67.67
2018-05-02T01:38:32.897Z,67.86
2018-05-02T01:40:29.888Z,67.10
2018-05-02T01:41:29.630Z,67.19
2018-05-02T01:43:25.614Z,66.81
2018-05-02T01:44:25.559Z,66.62
2018-05-02T01:46:21.580Z,66.43
2018-05-02T01:47:21.418Z,66.62
2018-05-02T01:49:17.427Z,67.10
2018-05-02T01:50:17.306Z,67.76
2018-05-02T01:52:14.274Z,67.76
2018-05-02T01:53:14.112Z,67.29
2018-05-02T01:55:10.156Z,67.38
2018-05-02T01:56:10.054Z,66.91
2018-05-02T01:58:06.063Z,68.05
2018-05-02T01:59:05.920Z,67.86
2018-05-02T02:01:01.970Z,68.05
2018-05-02T02:02:01.795Z,67.95
2018-05-02T02:03:57.833Z,67.95
2018-05-02T02:04:57.661Z,67.76
2018-05-02T02:06:53.672Z,67.86
2018-05-02T02:07:53.597Z,67.82
2018-05-02T02:09:49.563Z,68.49
2018-05-02T02:10:49.459Z,68.24
2018-05-02T02:12:45.460Z,67.73
2018-05-02T02:13:45.364Z,68.01
2018-05-02T02:15:41.403Z,68.30
2018-05-02T02:16:41.257Z,68.49
2018-05-02T02:18:37.333Z,68.96
2018-05-02T02:19:37.103Z,69.06
2018-05-02T02:21:33.262Z,69.15
2018-05-02T02:22:33.083Z,69.35
2018-05-02T02:24:29.234Z,69.15
2018-05-02T02:25:28.945Z,68.87
2018-05-02T02:27:25.060Z,69.25
2018-05-02T02:28:24.830Z,69.35
2018-05-02T02:30:20.874Z,68.96
2018-05-02T02:31:20.694Z,68.87
2018-05-02T02:33:16.713Z,68.77
2018-05-02T02:34:16.639Z,68.59
2018-05-02T02:36:10.234Z,68.77
2018-05-02T02:37:10.100Z,69.06
2018-05-02T02:39:06.103Z,69.44
2018-05-02T02:40:05.967Z,69.06
2018-05-02T02:42:01.997Z,69.82
2018-05-02T02:43:01.820Z,69.73
2018-05-02T02:44:58.709Z,69.54
2018-05-02T02:45:58.585Z,70.10
2018-05-02T02:47:54.582Z,70.30
2018-05-02T02:48:54.481Z,70.30
2018-05-02T02:50:50.518Z,70.10
2018-05-02T02:51:50.349Z,69.44
2018-05-02T02:53:46.353Z,69.63
2018-05-02T02:54:46.260Z,69.54
2018-05-02T02:56:42.349Z,69.15
2018-05-02T02:57:42.220Z,69.10
2018-05-02T02:59:36.222Z,68.43
2018-05-02T03:00:35.718Z,68.59
2018-05-02T03:02:31.754Z,68.68
2018-05-02T03:03:31.597Z,68.49
2018-05-02T03:05:25.206Z,69.15
2018-05-02T03:06:25.035Z,69.35
2018-05-02T03:08:21.322Z,68.87
2018-05-02T03:09:21.133Z,68.87
2018-05-02T03:11:17.269Z,69.44
2018-05-02T03:12:17.075Z,69.50
2018-05-02T03:14:13.155Z,69.88
2018-05-02T03:15:12.968Z,70.36
2018-05-02T03:17:08.985Z,70.74
2018-05-02T03:18:08.842Z,70.64
2018-05-02T03:20:04.889Z,70.74
2018-05-02T03:21:04.730Z,70.45
2018-05-02T03:23:00.773Z,70.93
2018-05-02T03:24:00.661Z,70.83
2018-05-02T03:25:56.693Z,70.45
2018-05-02T03:26:56.540Z,70.49
2018-05-02T03:28:52.578Z,70.54
2018-05-02T03:29:52.415Z,70.54
2018-05-02T03:31:48.424Z,70.58
2018-05-02T03:32:48.309Z,70.83
2018-05-02T03:34:44.351Z,70.49
2018-05-02T03:35:44.244Z,70.45
2018-05-02T03:37:40.336Z,69.98
2018-05-02T03:38:40.215Z,70.83
2018-05-02T03:40:37.041Z,71.41
2018-05-02T03:41:36.915Z,71.41
2018-05-02T03:43:32.941Z,70.54
2018-05-02T03:44:32.846Z,71.22
2018-05-02T03:46:28.828Z,71.69
2018-05-02T03:47:28.694Z,71.69
2018-05-02T03:49:24.681Z,71.31
2018-05-02T03:50:24.568Z,71.50
2018-05-02T03:52:20.573Z,71.69
2018-05-02T03:53:20.449Z,71.41
2018-05-02T03:55:17.350Z,70.64
2018-05-02T03:56:17.157Z,70.83
2018-05-02T03:58:13.401Z,70.64
2018-05-02T03:59:13.188Z,71.50
2018-05-02T04:01:07.695Z,71.78
2018-05-02T04:02:07.627Z,71.69
2018-05-02T04:04:03.630Z,72.45
2018-05-02T04:05:03.492Z,71.78
2018-05-02T04:06:59.525Z,70.93
2018-05-02T04:07:59.396Z,71.22
2018-05-02T04:09:55.392Z,71.22
2018-05-02T04:10:55.333Z,71.78
2018-05-02T04:12:51.357Z,71.88
2018-05-02T04:15:07.305Z,71.88
2018-05-02T04:16:07.155Z,72.16
2018-05-02T04:18:03.171Z,72.07
2018-05-02T04:19:03.038Z,71.88
2018-05-02T04:20:59.118Z,73.30
2018-05-02T04:21:58.925Z,73.69
2018-05-02T04:23:54.985Z,72.83
2018-05-02T04:24:54.793Z,72.74
2018-05-02T04:26:50.786Z,72.07
2018-05-02T04:27:50.673Z,72.07
2018-05-02T04:29:46.725Z,71.97
2018-05-02T04:30:46.540Z,71.59
2018-05-02T04:32:42.607Z,72.74
2018-05-02T04:33:42.440Z,72.83
2018-05-02T04:35:38.429Z,72.64
2018-05-02T04:36:38.327Z,72.92
2018-05-02T04:38:34.352Z,72.92
2018-05-02T04:39:34.236Z,72.83
2018-05-02T04:41:30.285Z,73.02
2018-05-02T04:42:30.169Z,72.83
2018-05-02T04:44:26.219Z,72.83
2018-05-02T04:45:26.044Z,72.92
2018-05-02T04:47:22.136Z,73.21
2018-05-02T04:48:21.991Z,73.11
2018-05-02T04:50:18.398Z,72.45
2018-05-02T04:51:17.799Z,72.92
2018-05-02T04:53:13.818Z,73.30
2018-05-02T04:54:13.708Z,73.59
2018-05-02T04:56:09.786Z,72.74
2018-05-02T04:57:09.585Z,73.30
2018-05-02T04:59:05.635Z,73.06
2018-05-02T05:00:05.528Z,72.67
2018-05-02T05:02:01.751Z,71.44
2018-05-02T05:03:01.622Z,71.34
2018-05-02T05:04:57.646Z,71.82
2018-05-02T05:05:57.522Z,71.69
2018-05-02T05:07:53.550Z,71.41
2018-05-02T05:08:53.437Z,71.88
2018-05-02T05:10:49.524Z,71.97
2018-05-02T05:11:49.416Z,72.07
2018-05-02T05:13:45.431Z,72.26
2018-05-02T05:14:45.238Z,72.74
2018-05-02T05:16:41.364Z,71.88
2018-05-02T05:17:41.125Z,72.26
2018-05-02T05:19:38.113Z,72.45
2018-05-02T05:20:37.917Z,72.11
2018-05-02T05:22:31.497Z,72.11
2018-05-02T05:23:31.387Z,72.07
2018-05-02T05:25:27.494Z,72.26
2018-05-02T05:26:27.225Z,72.74
2018-05-02T05:28:23.504Z,73.11
2018-05-02T05:29:23.390Z,72.64
2018-05-02T05:31:19.451Z,72.64
2018-05-02T05:32:19.232Z,72.64
2018-05-02T05:34:15.347Z,72.96
2018-05-02T05:35:15.160Z,72.96
2018-05-02T05:37:11.114Z,72.49
2018-05-02T05:38:11.006Z,72.67
2018-05-02T05:40:06.787Z,72.39
2018-05-02T05:41:06.669Z,72.96
2018-05-02T05:43:02.691Z,72.96
2018-05-02T05:44:02.572Z,72.77
2018-05-02T05:45:56.095Z,72.96
2018-05-02T05:46:55.988Z,72.77
2018-05-02T05:48:52.028Z,72.67
2018-05-02T05:49:51.905Z,72.67
2018-05-02T05:51:47.903Z,72.77
2018-05-02T05:52:47.787Z,72.86
2018-05-02T05:54:43.801Z,72.67
2018-05-02T05:55:43.703Z,72.67
2018-05-02T05:57:40.179Z,72.58
2018-05-02T05:58:39.584Z,72.30
2018-05-02T06:00:36.059Z,72.20
2018-05-02T06:01:35.473Z,72.58
2018-05-02T06:03:31.551Z,72.86
2018-05-02T06:04:31.425Z,72.67
2018-05-02T06:06:27.482Z,72.24
2018-05-02T06:07:27.277Z,72.01
2018-05-02T06:09:23.260Z,72.62
2018-05-02T06:10:23.168Z,72.42
2018-05-02T06:12:19.188Z,72.33
2018-05-02T06:14:35.089Z,71.76
2018-05-02T06:15:34.979Z,71.95
2018-05-02T06:17:30.992Z,72.14
2018-05-02T06:18:30.873Z,71.28
2018-05-02T06:20:24.408Z,70.81
2018-05-02T06:21:24.405Z,70.90
2018-05-02T06:23:20.361Z,70.72
2018-05-02T06:24:20.245Z,71.47
2018-05-02T06:26:16.317Z,71.38
2018-05-02T06:27:16.154Z,71.09
2018-05-02T06:29:12.292Z,70.81
2018-05-02T06:30:12.074Z,70.33
2018-05-02T06:32:08.097Z,70.14
2018-05-02T06:33:07.969Z,69.85
2018-05-02T06:35:20.083Z,69.57
2018-05-02T06:36:19.938Z,69.76
2018-05-02T06:38:14.251Z,69.48
2018-05-02T06:39:14.056Z,69.76
2018-05-02T06:41:10.097Z,69.60
2018-05-02T06:42:09.963Z,69.67
2018-05-02T06:44:06.013Z,69.57
2018-05-02T06:45:05.892Z,69.60
2018-05-02T06:47:01.939Z,69.79
2018-05-02T06:48:01.809Z,69.32
2018-05-02T06:49:01.791Z,68.94
2018-05-02T06:50:01.766Z,69.13
2018-05-02T06:51:01.733Z,68.94
2018-05-02T06:52:01.757Z,69.42
2018-05-02T06:53:01.686Z,69.60
2018-05-02T06:54:01.665Z,69.79
2018-05-02T06:55:01.640Z,69.51
2018-05-02T06:56:01.639Z,70.27
2018-05-02T06:57:01.589Z,69.60
2018-05-02T06:58:01.572Z,69.89
2018-05-02T06:59:01.555Z,69.70
2018-05-02T07:00:01.561Z,69.60
2018-05-02T07:01:01.539Z,69.70
2018-05-02T07:02:01.543Z,69.89
2018-05-02T07:03:01.540Z,69.42
2018-05-02T07:04:01.543Z,69.79
2018-05-02T07:05:01.523Z,70.08
2018-05-02T07:06:01.443Z,69.89
2018-05-02T07:07:01.359Z,69.70
2018-05-02T07:08:01.337Z,69.70
2018-05-02T07:09:01.314Z,69.13
2018-05-02T07:10:01.330Z,69.04
2018-05-02T07:11:01.332Z,68.78
2018-05-02T07:12:01.243Z,69.17
2018-05-02T07:13:01.221Z,69.07
2018-05-02T07:14:01.198Z,69.17
2018-05-02T07:15:01.186Z,68.98
2018-05-02T07:16:01.154Z,68.78
2018-05-02T07:17:01.135Z,67.83
2018-05-02T07:18:01.106Z,68.21
2018-05-02T07:19:01.087Z,68.02
2018-05-02T07:20:01.061Z,67.93
2018-05-02T07:21:01.035Z,67.93
2018-05-02T07:22:01.025Z,67.45
2018-05-02T07:23:00.993Z,67.07
2018-05-02T07:24:00.969Z,67.26
2018-05-02T07:25:00.944Z,67.93
2018-05-02T07:26:00.920Z,67.83
2018-05-02T07:27:00.920Z,67.64
2018-05-02T07:28:00.884Z,68.02
2018-05-02T07:29:00.853Z,68.02
2018-05-02T07:30:00.827Z,67.83
2018-05-02T07:31:00.807Z,69.07
2018-05-02T07:32:00.786Z,68.98
2018-05-02T07:33:00.791Z,67.83
2018-05-02T07:34:00.739Z,67.83
2018-05-02T07:35:00.713Z,67.35
2018-05-02T07:36:00.695Z,67.07
2018-05-02T07:37:00.669Z,67.26
2018-05-02T07:38:00.651Z,67.07
2018-05-02T07:39:00.635Z,67.58
2018-05-02T07:40:00.608Z,67.68
2018-05-02T07:41:00.572Z,66.63
2018-05-02T07:42:00.560Z,66.44
2018-05-02T07:43:00.531Z,66.63
2018-05-02T07:44:00.504Z,66.91
2018-05-02T07:45:00.493Z,66.72
2018-05-02T07:46:00.460Z,66.72
2018-05-02T07:47:00.444Z,67.29
2018-05-02T07:48:00.464Z,66.63
2018-05-02T07:49:00.402Z,66.63
2018-05-02T07:50:00.422Z,66.91
2018-05-02T07:51:00.345Z,66.82
2018-05-02T07:52:00.327Z,66.72
2018-05-02T07:53:00.303Z,66.44
2018-05-02T07:54:00.276Z,66.44
2018-05-02T07:55:00.256Z,66.24
2018-05-02T07:56:00.264Z,65.96
2018-05-02T07:57:00.243Z,66.05
2018-05-02T07:58:00.193Z,66.34
2018-05-02T07:59:00.166Z,65.96
2018-05-02T08:00:00.138Z,65.96
2018-05-02T08:01:00.119Z,65.77
2018-05-02T08:02:00.095Z,66.05
2018-05-02T08:03:00.074Z,65.52
2018-05-02T08:04:00.057Z,65.39
2018-05-02T08:05:00.031Z,65.29
2018-05-02T08:06:00.002Z,65.48
2018-05-02T08:06:59.981Z,65.39
2018-05-02T08:07:59.957Z,65.80
2018-05-02T08:08:59.939Z,66.34
2018-05-02T08:09:59.922Z,65.70
2018-05-02T08:10:59.905Z,66.56
2018-05-02T08:11:59.866Z,66.28
2018-05-02T08:12:59.842Z,65.89
2018-05-02T08:13:59.822Z,65.61
2018-05-02T08:14:59.797Z,65.70
2018-05-02T08:15:59.777Z,66.66
2018-05-02T08:16:59.754Z,66.09
2018-05-02T08:17:59.733Z,65.33
2018-05-02T08:18:59.709Z,64.94
2018-05-02T08:19:59.689Z,65.04
2018-05-02T08:20:59.691Z,65.23
2018-05-02T08:21:59.719Z,65.33
2018-05-02T08:22:59.618Z,65.52
2018-05-02T08:23:59.618Z,66.18
2018-05-02T08:24:59.625Z,65.89
2018-05-02T08:25:59.627Z,65.99
2018-05-02T08:26:59.634Z,65.89
2018-05-02T08:27:59.649Z,65.99
2018-05-02T08:28:59.594Z,65.93
2018-05-02T08:29:59.553Z,66.02
2018-05-02T08:30:59.437Z,65.26
2018-05-02T08:31:59.411Z,65.07
2018-05-02T08:32:59.435Z,64.59
2018-05-02T08:33:59.363Z,65.36
2018-05-02T08:34:59.353Z,65.45
2018-05-02T08:35:59.324Z,65.17
2018-05-02T08:36:59.299Z,65.45
2018-05-02T08:37:59.275Z,64.97
2018-05-02T08:38:59.370Z,64.78
2018-05-02T08:39:59.234Z,64.97
2018-05-02T08:40:59.211Z,64.50
2018-05-02T08:41:59.260Z,64.50
2018-05-02T08:42:59.167Z,64.40
2018-05-02T08:43:59.147Z,64.31
2018-05-02T08:44:59.119Z,64.40
2018-05-02T08:45:59.138Z,64.59
2018-05-02T08:47:05.802Z,63.76
2018-05-02T08:47:59.058Z,63.57
2018-05-02T08:48:59.042Z,63.29
2018-05-02T08:49:59.092Z,62.62
2018-05-02T08:50:58.989Z,62.81
2018-05-02T08:51:58.967Z,62.15
2018-05-02T08:52:58.969Z,62.05
2018-05-02T08:53:58.915Z,62.43
2018-05-02T08:54:58.915Z,61.66
2018-05-02T08:55:58.875Z,61.29
2018-05-02T08:56:58.898Z,61.38
2018-05-02T08:57:58.850Z,61.38
2018-05-02T08:58:58.805Z,61.38
2018-05-02T08:59:58.786Z,61.38
2018-05-02T09:00:58.771Z,60.81
2018-05-02T09:01:58.746Z,61.86
2018-05-02T09:02:58.738Z,62.34
2018-05-02T09:03:58.698Z,62.52
2018-05-02T09:04:58.675Z,61.79
2018-05-02T09:05:58.652Z,61.66
2018-05-02T09:06:58.637Z,61.60
2018-05-02T09:07:58.608Z,61.38
2018-05-02T09:08:58.600Z,61.19
2018-05-02T09:09:58.635Z,61.38
2018-05-02T09:10:58.541Z,61.38
2018-05-02T09:11:58.522Z,62.34
2018-05-02T09:12:58.496Z,63.00
2018-05-02T09:13:58.489Z,62.91
2018-05-02T09:14:58.453Z,62.43
2018-05-02T09:15:58.434Z,62.43
2018-05-02T09:16:58.409Z,62.05
2018-05-02T09:17:58.390Z,62.43
2018-05-02T09:18:58.371Z,62.05
2018-05-02T09:19:58.345Z,62.84
2018-05-02T09:20:58.329Z,63.03
2018-05-02T09:21:58.298Z,63.86
2018-05-02T09:22:58.279Z,63.67
2018-05-02T09:23:58.254Z,64.34
2018-05-02T09:24:58.241Z,63.76
2018-05-02T09:25:58.212Z,64.05
2018-05-02T09:26:58.193Z,63.20
2018-05-02T09:27:58.172Z,62.65
2018-05-02T09:28:58.146Z,61.98
2018-05-02T09:29:58.126Z,62.84
2018-05-02T09:30:58.115Z,63.80
2018-05-02T09:31:58.077Z,63.80
2018-05-02T09:32:58.059Z,63.60
2018-05-02T09:33:58.040Z,63.32
2018-05-02T09:34:58.027Z,63.51
2018-05-02T09:35:57.990Z,63.03
2018-05-02T09:36:57.973Z,62.55
2018-05-02T09:37:57.947Z,62.46
2018-05-02T09:38:57.925Z,61.79
2018-05-02T09:39:59.039Z,62.55
2018-05-02T09:40:57.884Z,62.37
2018-05-02T09:41:57.870Z,62.18
2018-05-02T09:42:57.851Z,61.69
2018-05-02T09:43:57.826Z,61.98
2018-05-02T09:44:57.801Z,62.08
2018-05-02T09:45:57.778Z,62.37
2018-05-02T09:46:57.754Z,61.22
2018-05-02T09:47:57.728Z,61.32
2018-05-02T09:48:57.708Z,61.51
2018-05-02T09:49:57.703Z,61.32
2018-05-02T09:50:57.699Z,62.94
2018-05-02T09:51:57.727Z,63.51
2018-05-02T09:52:57.697Z,63.80
2018-05-02T09:53:57.700Z,63.42
2018-05-02T09:54:57.721Z,62.18
2018-05-02T09:55:57.590Z,60.87
2018-05-02T09:56:57.583Z,60.49
2018-05-02T09:57:57.517Z,60.96
2018-05-02T09:58:57.505Z,60.87
2018-05-02T09:59:57.466Z,61.35
2018-05-02T10:00:58.387Z,61.72
2018-05-02T10:01:57.421Z,60.58
2018-05-02T10:02:57.404Z,58.95
2018-05-02T10:03:57.375Z,57.71
2018-05-02T10:04:57.357Z,58.19
2018-05-02T10:05:57.335Z,58.19
2018-05-02T10:06:57.310Z,56.47
2018-05-02T10:07:57.292Z,55.61
2018-05-02T10:08:57.270Z,55.80
2018-05-02T10:09:57.266Z,55.71
2018-05-02T10:10:57.231Z,55.99
2018-05-02T10:11:57.208Z,55.13
2018-05-02T10:12:57.186Z,55.16
2018-05-02T10:13:57.160Z,54.94
2018-05-02T10:14:57.138Z,55.26
2018-05-02T10:15:57.117Z,56.12
2018-05-02T10:16:57.095Z,55.61
2018-05-02T10:17:57.076Z,55.61
2018-05-02T10:18:57.054Z,55.64
2018-05-02T10:19:57.036Z,55.93
2018-05-02T10:20:57.008Z,55.74
2018-05-02T10:21:57.792Z,55.93
2018-05-02T10:22:56.964Z,57.17
2018-05-02T10:23:56.947Z,56.60
2018-05-02T10:24:56.922Z,56.60
2018-05-02T10:25:56.899Z,57.55
2018-05-02T10:26:56.890Z,55.45
2018-05-02T10:27:56.857Z,55.07
2018-05-02T10:28:56.836Z,54.30
2018-05-02T10:29:56.811Z,54.21
2018-05-02T10:30:56.833Z,55.07
2018-05-02T10:31:56.804Z,55.54
2018-05-02T10:32:56.796Z,54.39
2018-05-02T10:33:56.725Z,54.43
2018-05-02T10:34:56.723Z,55.10
2018-05-02T10:35:56.682Z,55.86
2018-05-02T10:36:56.710Z,56.34
2018-05-02T10:37:56.639Z,57.29
2018-05-02T10:38:56.621Z,57.48
2018-05-02T10:39:56.597Z,57.48
2018-05-02T10:40:56.577Z,57.20
2018-05-02T10:41:56.554Z,57.68
2018-05-02T10:42:56.852Z,56.72
2018-05-02T10:43:56.518Z,55.00
2018-05-02T10:44:56.497Z,55.57
2018-05-02T10:45:56.478Z,56.05
2018-05-02T10:46:56.446Z,56.53
2018-05-02T10:49:28.700Z,54.33
2018-05-02T10:50:28.588Z,54.33
2018-05-02T10:52:24.670Z,54.43
2018-05-02T10:53:24.529Z,54.33
2018-05-02T10:55:20.787Z,56.34
2018-05-02T10:56:20.615Z,55.67
2018-05-02T10:58:16.758Z,56.72
2018-05-02T10:59:16.662Z,57.58
2018-05-02T11:01:11.267Z,56.72
2018-05-02T11:02:11.153Z,57.48
2018-05-02T11:04:07.220Z,58.73
2018-05-02T11:05:07.069Z,57.61
2018-05-02T11:07:00.678Z,57.70
2018-05-02T11:08:00.561Z,57.70
2018-05-02T11:09:56.571Z,57.92
2018-05-02T11:10:56.451Z,57.73
2018-05-02T11:12:52.951Z,54.28
2018-05-02T11:13:52.374Z,54.10
2018-05-02T11:15:48.384Z,53.45
2018-05-02T11:16:48.286Z,53.45
2018-05-02T11:18:44.315Z,54.70
2018-05-02T11:19:44.208Z,52.97
2018-05-02T11:21:40.220Z,54.22
2018-05-02T11:22:40.109Z,54.60
2018-05-02T11:24:36.156Z,55.75
2018-05-02T11:25:35.997Z,54.60
2018-05-02T11:27:32.033Z,55.01
2018-05-02T11:28:31.930Z,55.30
2018-05-02T11:30:28.061Z,52.42
2018-05-02T11:31:27.951Z,51.75
2018-05-02T11:33:24.064Z,51.78
2018-05-02T11:34:23.942Z,51.49
2018-05-02T11:36:19.950Z,50.73
2018-05-02T11:37:19.844Z,51.20
2018-05-02T11:39:15.899Z,50.92
2018-05-02T11:40:15.783Z,51.20
2018-05-02T11:42:11.877Z,51.49
2018-05-02T11:43:11.806Z,51.59
2018-05-02T11:45:07.806Z,51.78
2018-05-02T11:46:07.608Z,51.68
2018-05-02T11:48:03.834Z,51.68
2018-05-02T11:49:03.621Z,51.59
2018-05-02T11:50:59.807Z,52.83
2018-05-02T11:51:59.609Z,53.12
2018-05-02T11:53:55.769Z,51.97
2018-05-02T11:54:55.575Z,52.55
2018-05-02T11:56:51.584Z,53.12
2018-05-02T11:57:51.541Z,52.83
2018-05-02T11:59:47.505Z,51.30
2018-05-02T12:00:47.375Z,51.10
2018-05-02T12:02:44.439Z,52.71
2018-05-02T12:03:44.230Z,53.09
2018-05-02T12:05:40.306Z,51.65
2018-05-02T12:06:40.189Z,51.65
2018-05-02T12:08:36.262Z,51.95
2018-05-02T12:09:36.094Z,51.56
2018-05-02T12:11:32.153Z,51.75
2018-05-02T12:12:32.046Z,52.62
2018-05-02T12:14:28.027Z,52.07
2018-05-02T12:15:27.908Z,52.45
2018-05-02T12:17:23.942Z,51.40
2018-05-02T12:18:23.833Z,50.53
2018-05-02T12:20:19.921Z,51.20
2018-05-02T12:21:19.835Z,51.20
2018-05-02T12:23:16.274Z,51.87
2018-05-02T12:24:15.820Z,51.68
2018-05-02T12:26:11.894Z,51.97
2018-05-02T12:27:11.649Z,52.74
2018-05-02T12:29:07.839Z,53.24
2018-05-02T12:30:07.643Z,53.34
2018-05-02T12:32:03.836Z,51.32
2018-05-02T12:33:03.643Z,51.90
2018-05-02T12:34:57.184Z,51.90
2018-05-02T12:35:57.509Z,51.71
2018-05-02T12:37:53.094Z,50.17
2018-05-02T12:38:52.996Z,50.68
2018-05-02T12:40:49.014Z,49.91
2018-05-02T12:41:48.888Z,50.96
2018-05-02T12:43:44.942Z,50.01
2018-05-02T12:44:44.796Z,49.50
2018-05-02T12:46:40.929Z,49.60
2018-05-02T12:47:40.756Z,50.17
2018-05-02T12:49:44.973Z,51.42
2018-05-02T12:50:44.849Z,51.71
2018-05-02T12:52:40.918Z,50.94
2018-05-02T12:53:40.809Z,50.75
2018-05-02T12:55:36.967Z,51.42
2018-05-02T12:56:36.863Z,51.68
2018-05-02T12:57:36.832Z,50.24
2018-05-02T12:58:36.813Z,50.05
2018-05-02T12:59:36.790Z,50.05
2018-05-02T13:00:36.796Z,51.30
2018-05-02T13:01:36.755Z,51.68
2018-05-02T13:02:36.823Z,51.01
2018-05-02T13:03:36.732Z,51.49
2018-05-02T13:04:36.690Z,51.59
2018-05-02T13:05:36.678Z,52.07
2018-05-02T13:06:36.651Z,51.49
2018-05-02T13:07:36.634Z,52.26
2018-05-02T13:08:36.617Z,52.07
2018-05-02T13:09:36.595Z,52.36
2018-05-02T13:10:36.573Z,52.83
2018-05-02T13:11:36.568Z,52.93
2018-05-02T13:12:36.541Z,52.45
2018-05-02T13:13:36.522Z,52.83
2018-05-02T13:14:36.497Z,52.45
2018-05-02T13:15:36.520Z,52.16
2018-05-02T13:16:36.460Z,52.93
2018-05-02T13:17:36.436Z,52.36
2018-05-02T13:18:36.417Z,52.23
2018-05-02T13:19:36.398Z,52.26
2018-05-02T13:20:36.381Z,52.14
2018-05-02T13:21:36.357Z,52.14
2018-05-02T13:22:36.335Z,52.52
2018-05-02T13:23:36.322Z,53.19
2018-05-02T13:24:36.297Z,53.19
2018-05-02T13:27:11.018Z,53.38
2018-05-02T13:28:10.908Z,54.34
2018-05-02T13:30:06.926Z,53.58
2018-05-02T13:31:06.811Z,53.38
2018-05-02T13:33:02.973Z,52.62
2018-05-02T13:34:02.802Z,53.28
2018-05-02T13:35:58.969Z,52.91
2018-05-02T13:36:58.847Z,53.77
2018-05-02T13:38:55.492Z,55.30
2018-05-02T13:39:54.815Z,53.77
2018-05-02T13:41:50.923Z,54.15
2018-05-02T13:42:50.820Z,54.15
2018-05-02T13:44:46.921Z,53.96
2018-05-02T13:45:46.834Z,54.24
2018-05-02T13:47:40.599Z,55.30
2018-05-02T13:48:40.498Z,54.44
2018-05-02T13:50:34.052Z,54.53
2018-05-02T13:51:33.930Z,54.91
2018-05-02T13:53:29.993Z,55.30
2018-05-02T13:54:29.898Z,55.46
2018-05-02T13:56:25.948Z,55.94
2018-05-02T13:57:25.735Z,55.85
2018-05-02T13:59:30.016Z,54.99
2018-05-02T14:00:29.906Z,54.70
2018-05-02T14:02:25.962Z,54.44
2018-05-02T14:03:25.809Z,55.21
2018-05-02T14:05:21.924Z,54.12
2018-05-02T14:06:22.177Z,55.18
2018-05-02T14:08:17.975Z,55.75
2018-05-02T14:09:17.629Z,56.04
2018-05-02T14:11:13.665Z,56.42
2018-05-02T14:12:13.552Z,56.52
2018-05-02T14:14:09.565Z,56.52
2018-05-02T14:15:09.462Z,57.28
2018-05-02T14:17:03.064Z,56.90
2018-05-02T14:18:03.270Z,57.19
2018-05-02T14:19:58.920Z,57.48
2018-05-02T14:20:58.845Z,56.71
2018-05-02T14:22:54.971Z,56.90
2018-05-02T14:23:54.844Z,56.71
2018-05-02T14:25:51.001Z,56.81
2018-05-02T14:26:50.869Z,56.61
2018-05-02T14:28:46.993Z,57.19
2018-05-02T14:29:46.874Z,57.28
2018-05-02T14:31:43.009Z,56.23
2018-05-02T14:32:42.909Z,55.75
2018-05-02T14:34:39.033Z,54.79
2018-05-02T14:35:38.917Z,55.08
2018-05-02T14:37:32.552Z,55.65
2018-05-02T14:38:32.452Z,55.65
2018-05-02T14:40:28.484Z,56.23
2018-05-02T14:41:28.398Z,56.90
2018-05-02T14:43:24.419Z,56.42
2018-05-02T14:44:24.319Z,56.71
2018-05-02T14:46:20.353Z,57.38
2018-05-02T14:47:20.241Z,57.57
2018-05-02T14:49:16.281Z,58.24
2018-05-02T14:50:16.161Z,58.44
2018-05-02T14:52:12.182Z,58.44
2018-05-02T14:53:12.070Z,58.81
2018-05-02T14:55:08.101Z,59.11
2018-05-02T14:56:07.990Z,59.77
2018-05-02T14:58:04.054Z,58.53
2018-05-02T14:59:03.958Z,58.24
2018-05-02T15:01:00.006Z,58.44
2018-05-02T15:01:59.870Z,58.62
2018-05-02T15:03:55.987Z,58.72
2018-05-02T15:04:55.789Z,58.15
2018-05-02T15:06:51.987Z,57.57
2018-05-02T15:07:51.787Z,58.91
2018-05-02T15:09:47.787Z,59.11
2018-05-02T15:10:47.685Z,59.20
2018-05-02T15:12:43.753Z,58.72
2018-05-02T15:13:43.576Z,58.72
2018-05-02T15:15:37.112Z,58.91
2018-05-02T15:16:37.002Z,59.30
2018-05-02T15:18:33.026Z,59.20
2018-05-02T15:19:32.897Z,59.48
2018-05-02T15:21:29.043Z,59.11
2018-05-02T15:22:28.933Z,59.11
2018-05-02T15:24:25.025Z,59.77
2018-05-02T15:25:24.913Z,60.44
2018-05-02T15:27:18.532Z,59.58
2018-05-02T15:28:18.399Z,59.30
2018-05-02T15:29:18.376Z,59.97
2018-05-02T15:30:19.191Z,59.20
2018-05-02T15:31:18.334Z,59.20
2018-05-02T15:32:18.310Z,59.77
2018-05-02T15:33:18.296Z,59.77
2018-05-02T15:34:18.273Z,59.58
2018-05-02T15:35:18.253Z,59.68
2018-05-02T15:36:18.231Z,60.44
2018-05-02T15:37:18.210Z,60.73
2018-05-02T15:38:18.191Z,60.35
2018-05-02T15:39:18.182Z,60.16
2018-05-02T15:40:18.182Z,60.06
2018-05-02T15:41:18.138Z,60.44
2018-05-02T15:42:18.109Z,60.25
2018-05-02T15:43:18.090Z,60.83
2018-05-02T15:44:18.078Z,60.64
2018-05-02T15:45:18.050Z,60.54
2018-05-02T15:46:18.034Z,60.54
2018-05-02T15:47:18.019Z,60.83
2018-05-02T15:48:18.012Z,61.11
2018-05-02T15:49:18.065Z,60.83
2018-05-02T15:50:18.012Z,60.93
2018-05-02T15:51:18.574Z,61.02
2018-05-02T15:52:17.987Z,60.93
2018-05-02T15:53:17.927Z,60.93
2018-05-02T15:54:17.950Z,60.93
2018-05-02T15:55:17.850Z,61.69
2018-05-02T15:56:17.836Z,61.60
2018-05-02T15:57:17.809Z,61.60
2018-05-02T15:58:17.905Z,61.40
2018-05-02T15:59:17.773Z,61.79
2018-05-02T16:00:17.747Z,61.50
2018-05-02T16:01:17.727Z,62.26
2018-05-02T16:02:17.724Z,62.17
2018-05-02T16:03:17.689Z,61.69
2018-05-02T16:04:17.663Z,61.79
2018-05-02T16:05:17.644Z,61.79
2018-05-02T16:06:17.624Z,61.69
2018-05-02T16:07:17.778Z,62.26
2018-05-02T16:08:17.593Z,62.07
2018-05-02T16:09:17.607Z,62.07
2018-05-02T16:10:17.542Z,61.79
2018-05-02T16:11:17.523Z,62.07
2018-05-02T16:12:17.748Z,62.55
2018-05-02T16:13:17.483Z,62.07
2018-05-02T16:14:17.461Z,62.36
2018-05-02T16:15:17.443Z,62.07
2018-05-02T16:16:17.478Z,62.46
2018-05-02T16:17:17.409Z,62.65
2018-05-02T16:18:17.386Z,62.46
2018-05-02T16:19:17.360Z,63.03
2018-05-02T16:20:17.340Z,62.84
2018-05-02T16:21:17.319Z,62.84
2018-05-02T16:22:17.297Z,63.22
2018-05-02T16:23:17.283Z,62.84
2018-05-02T16:24:17.258Z,62.65
2018-05-02T16:25:17.241Z,63.03